Sorensen Miller — WDD2540 — position and weather

sailwx.info

Track history (hours):
 
Tides and Currents Weather Stations Pressure Air Temp Water Temp Dewpoint Dewpoint Depression Visibility Wind Speed Wind Dir Waves Ship Positions

Sorensen Miller

Owner: Miller's Tug & Barge, Staten Island, NY. More information available from US FCC via Universal Licensing System and Coast Guard Vessel Documentation Center.

Last reported at 2018-Jun-14 19:27 UTC. Time now 2018-Jun-21 04:39 UTC.
Position N 40°38' W 074°04'.

Length 32 m; draft 3 m.

Type: . MMSI: 367116570.

Date/timePositionNaut miles runAvg speedWind from/ knotsBaromVisibWave heightAir tempDewpointWater temp
2018-Jun-14 19:27N 40°38' W 074°04'0 0.0
2018-Jun-14 19:01N 40°38' W 074°04'0 0.0
2018-Jun-14 18:30N 40°38' W 074°04'0 0.0
2018-Jun-14 18:01N 40°38' W 074°04'0 0.0
2018-Jun-14 17:31N 40°38' W 074°04'0 0.0
2018-Jun-14 17:01N 40°38' W 074°04'0 0.0
2018-Jun-14 16:31N 40°38' W 074°04'0 0.0
2018-Jun-14 16:00N 40°38' W 074°04'0 0.0
2018-Jun-14 15:30N 40°38' W 074°04'0 0.0
2018-Jun-14 15:00N 40°38' W 074°04'0 0.0
2018-Jun-14 14:31N 40°38' W 074°04'0 0.0
2018-Jun-14 13:59N 40°38' W 074°04'0 0.0
2018-Jun-14 13:28N 40°38' W 074°04'0 0.0
2018-Jun-14 13:01N 40°38' W 074°04'0 0.0
2018-Jun-14 12:30N 40°38' W 074°04'0 0.0
2018-Jun-14 12:01N 40°38' W 074°04'0 0.0
2018-Jun-14 05:45N 40°38' W 074°04'0 0.0
2018-Jun-14 05:29N 40°38' W 074°04'0 0.1
2018-Jun-14 05:00N 40°38' W 074°04'0 0.0
2018-Jun-14 04:30N 40°38' W 074°04'0 0.0
2018-Jun-14 04:00N 40°38' W 074°04'0 0.0
2018-Jun-14 03:30N 40°38' W 074°04'0 0.0
2018-Jun-14 03:00N 40°38' W 074°04'0 0.0
2018-Jun-14 02:27N 40°38' W 074°04'0 0.0
2018-Jun-14 01:58N 40°38' W 074°04'0 0.0
2018-Jun-14 01:28N 40°38' W 074°04'0 0.0
2018-Jun-14 01:00N 40°38' W 074°04'0 0.0
2018-Jun-14 00:29N 40°38' W 074°04'0 0.0
2018-Jun-14 00:00N 40°38' W 074°04'0 0.0
2018-Jun-13 23:30N 40°38' W 074°04'0 0.1
2018-Jun-13 22:53N 40°38' W 074°04'0 0.0
2018-Jun-13 22:30N 40°38' W 074°04'11 3.5
2018-Jun-13 19:21N 40°30' W 073°54'815.4
2018-Jun-13 18:50N 40°35' W 074°02'310.2
2018-Jun-13 18:31N 40°38' W 074°04'  
2018-Jun-08 23:38N 40°38' W 074°04'9 2.8
2018-Jun-08 20:29N 40°31' W 073°57'611.9
2018-Jun-08 19:57N 40°36' W 074°02'3 7.0
2018-Jun-08 19:30N 40°38' W 074°04'0 0.0
2018-Jun-08 11:26N 40°38' W 074°04'0 0.3
2018-Jun-08 11:00N 40°38' W 074°04'0 0.0
2018-Jun-08 10:30N 40°38' W 074°04'0 0.0
2018-Jun-08 10:00N 40°38' W 074°04'0 0.0
2018-Jun-08 09:30N 40°38' W 074°04'0 0.0
2018-Jun-08 09:00N 40°38' W 074°04'0 0.0
2018-Jun-08 08:30N 40°38' W 074°04'0 0.0
2018-Jun-08 08:00N 40°38' W 074°04'0 0.0
2018-Jun-08 07:30N 40°38' W 074°04'0 0.0
2018-Jun-08 06:58N 40°38' W 074°04'0 0.0
2018-Jun-08 06:30N 40°38' W 074°04'0 0.0
2018-Jun-08 06:00N 40°38' W 074°04'3 6.2
2018-Jun-08 05:30N 40°40' W 074°02'2 4.7
2018-Jun-08 05:00N 40°42' W 073°60'0 0.1
2018-Jun-08 04:30N 40°42' W 073°60'0 0.0
2018-Jun-08 04:00N 40°42' W 073°60'0 0.1
2018-Jun-08 03:30N 40°42' W 073°60'0 0.1
2018-Jun-08 03:01N 40°42' W 073°60'0 0.3
2018-Jun-08 02:30N 40°42' W 073°60'0 0.1
2018-Jun-08 02:00N 40°42' W 073°60'0 0.0
2018-Jun-08 01:30N 40°42' W 073°60'1 1.0
2018-Jun-08 01:00N 40°42' W 074°00'1 2.6
2018-Jun-08 00:30N 40°42' W 074°02'0 0.3
2018-Jun-08 00:00N 40°42' W 074°02'0 0.8
2018-Jun-07 23:30N 40°41' W 074°02'0 0.6
2018-Jun-07 23:00N 40°41' W 074°03'0 0.1
2018-Jun-07 22:30N 40°41' W 074°02'0 0.2
2018-Jun-07 22:00N 40°41' W 074°03'0 0.1
2018-Jun-07 21:30N 40°41' W 074°02'0 0.1
2018-Jun-07 21:00N 40°41' W 074°02'0 0.1
2018-Jun-07 20:30N 40°41' W 074°02'0 0.1
2018-Jun-07 20:00N 40°41' W 074°02'2 3.9
2018-Jun-07 19:30N 40°39' W 074°04'1 2.6
2018-Jun-07 18:58N 40°38' W 074°04'0 0.0
2018-Jun-07 18:27N 40°38' W 074°04'0 0.0
2018-Jun-07 17:59N 40°38' W 074°04'0 0.0
2018-Jun-07 17:30N 40°38' W 074°04'0 0.0
2018-Jun-07 17:00N 40°38' W 074°04'0 0.0
2018-Jun-07 16:27N 40°38' W 074°04'0 0.0
2018-Jun-07 16:00N 40°38' W 074°04'0 0.1
2018-Jun-07 15:28N 40°38' W 074°04'0 0.1
2018-Jun-07 15:00N 40°38' W 074°04'  
Track history (hours):
 
Tides and Currents Weather Stations Pressure Air Temp Water Temp Dewpoint Dewpoint Depression Visibility Wind Speed Wind Dir Waves Ship Positions

Sorensen Miller

Owner: Miller's Tug & Barge, Staten Island, NY. More information available from US FCC via Universal Licensing System and Coast Guard Vessel Documentation Center.

Last reported at 2018-Jun-14 19:27 UTC. Time now 2018-Jun-21 04:39 UTC.
Position N 40°38' W 074°04'.

Length 32 m; draft 3 m.

Type: . MMSI: 367116570.

Date/timePositionNaut miles runAvg speedWind from/ knotsBaromVisibWave heightAir tempDewpointWater temp
2018-Jun-14 19:27N 40°38' W 074°04'0 0.0
2018-Jun-14 19:01N 40°38' W 074°04'0 0.0
2018-Jun-14 18:30N 40°38' W 074°04'0 0.0
2018-Jun-14 18:01N 40°38' W 074°04'0 0.0
2018-Jun-14 17:31N 40°38' W 074°04'0 0.0
2018-Jun-14 17:01N 40°38' W 074°04'0 0.0
2018-Jun-14 16:31N 40°38' W 074°04'0 0.0
2018-Jun-14 16:00N 40°38' W 074°04'0 0.0
2018-Jun-14 15:30N 40°38' W 074°04'0 0.0
2018-Jun-14 15:00N 40°38' W 074°04'0 0.0
2018-Jun-14 14:31N 40°38' W 074°04'0 0.0
2018-Jun-14 13:59N 40°38' W 074°04'0 0.0
2018-Jun-14 13:28N 40°38' W 074°04'0 0.0
2018-Jun-14 13:01N 40°38' W 074°04'0 0.0
2018-Jun-14 12:30N 40°38' W 074°04'0 0.0
2018-Jun-14 12:01N 40°38' W 074°04'0 0.0
2018-Jun-14 05:45N 40°38' W 074°04'0 0.0
2018-Jun-14 05:29N 40°38' W 074°04'0 0.1
2018-Jun-14 05:00N 40°38' W 074°04'0 0.0
2018-Jun-14 04:30N 40°38' W 074°04'0 0.0
2018-Jun-14 04:00N 40°38' W 074°04'0 0.0
2018-Jun-14 03:30N 40°38' W 074°04'0 0.0
2018-Jun-14 03:00N 40°38' W 074°04'0 0.0
2018-Jun-14 02:27N 40°38' W 074°04'0 0.0
2018-Jun-14 01:58N 40°38' W 074°04'0 0.0
2018-Jun-14 01:28N 40°38' W 074°04'0 0.0
2018-Jun-14 01:00N 40°38' W 074°04'0 0.0
2018-Jun-14 00:29N 40°38' W 074°04'0 0.0
2018-Jun-14 00:00N 40°38' W 074°04'0 0.0
2018-Jun-13 23:30N 40°38' W 074°04'0 0.1
2018-Jun-13 22:53N 40°38' W 074°04'0 0.0
2018-Jun-13 22:30N 40°38' W 074°04'11 3.5
2018-Jun-13 19:21N 40°30' W 073°54'815.4
2018-Jun-13 18:50N 40°35' W 074°02'310.2
2018-Jun-13 18:31N 40°38' W 074°04'  
2018-Jun-08 23:38N 40°38' W 074°04'9 2.8
2018-Jun-08 20:29N 40°31' W 073°57'611.9
2018-Jun-08 19:57N 40°36' W 074°02'3 7.0
2018-Jun-08 19:30N 40°38' W 074°04'0 0.0
2018-Jun-08 11:26N 40°38' W 074°04'0 0.3
2018-Jun-08 11:00N 40°38' W 074°04'0 0.0
2018-Jun-08 10:30N 40°38' W 074°04'0 0.0
2018-Jun-08 10:00N 40°38' W 074°04'0 0.0
2018-Jun-08 09:30N 40°38' W 074°04'0 0.0
2018-Jun-08 09:00N 40°38' W 074°04'0 0.0
2018-Jun-08 08:30N 40°38' W 074°04'0 0.0
2018-Jun-08 08:00N 40°38' W 074°04'0 0.0
2018-Jun-08 07:30N 40°38' W 074°04'0 0.0
2018-Jun-08 06:58N 40°38' W 074°04'0 0.0
2018-Jun-08 06:30N 40°38' W 074°04'0 0.0
2018-Jun-08 06:00N 40°38' W 074°04'3 6.2
2018-Jun-08 05:30N 40°40' W 074°02'2 4.7
2018-Jun-08 05:00N 40°42' W 073°60'0 0.1
2018-Jun-08 04:30N 40°42' W 073°60'0 0.0
2018-Jun-08 04:00N 40°42' W 073°60'0 0.1
2018-Jun-08 03:30N 40°42' W 073°60'0 0.1
2018-Jun-08 03:01N 40°42' W 073°60'0 0.3
2018-Jun-08 02:30N 40°42' W 073°60'0 0.1
2018-Jun-08 02:00N 40°42' W 073°60'0 0.0
2018-Jun-08 01:30N 40°42' W 073°60'1 1.0
2018-Jun-08 01:00N 40°42' W 074°00'1 2.6
2018-Jun-08 00:30N 40°42' W 074°02'0 0.3
2018-Jun-08 00:00N 40°42' W 074°02'0 0.8
2018-Jun-07 23:30N 40°41' W 074°02'0 0.6
2018-Jun-07 23:00N 40°41' W 074°03'0 0.1
2018-Jun-07 22:30N 40°41' W 074°02'0 0.2
2018-Jun-07 22:00N 40°41' W 074°03'0 0.1
2018-Jun-07 21:30N 40°41' W 074°02'0 0.1
2018-Jun-07 21:00N 40°41' W 074°02'0 0.1
2018-Jun-07 20:30N 40°41' W 074°02'0 0.1
2018-Jun-07 20:00N 40°41' W 074°02'2 3.9
2018-Jun-07 19:30N 40°39' W 074°04'1 2.6
2018-Jun-07 18:58N 40°38' W 074°04'0 0.0
2018-Jun-07 18:27N 40°38' W 074°04'0 0.0
2018-Jun-07 17:59N 40°38' W 074°04'0 0.0
2018-Jun-07 17:30N 40°38' W 074°04'0 0.0
2018-Jun-07 17:00N 40°38' W 074°04'0 0.0
2018-Jun-07 16:27N 40°38' W 074°04'0 0.0
2018-Jun-07 16:00N 40°38' W 074°04'0 0.1
2018-Jun-07 15:28N 40°38' W 074°04'0 0.1
2018-Jun-07 15:00N 40°38' W 074°04'  

Dump ship's entire track history